createdAt,value
2022-10-25T00:01:47.134Z,18.45
2022-10-25T00:04:15.879Z,22.80
2022-10-25T00:06:43.628Z,26.92
2022-10-25T00:09:11.545Z,18.23
2022-10-25T00:11:39.099Z,21.77
2022-10-25T00:14:08.035Z,23.63
2022-10-25T00:16:38.108Z,24.17
2022-10-25T00:19:06.329Z,22.17
2022-10-25T00:24:00.995Z,24.77
2022-10-25T00:26:28.454Z,25.88
2022-10-25T00:28:56.191Z,23.73
2022-10-25T00:31:24.522Z,24.63
2022-10-25T00:33:52.215Z,19.88
2022-10-25T00:36:22.823Z,25.85
2022-10-25T00:38:51.071Z,24.42
2022-10-25T00:43:50.331Z,26.40
2022-10-25T00:46:24.317Z,22.88
2022-10-25T00:49:00.431Z,20.33
2022-10-25T00:51:55.895Z,23.20
2022-10-25T00:54:30.364Z,26.25
2022-10-25T00:57:04.327Z,29.13
2022-10-25T00:59:32.390Z,22.08
2022-10-25T01:02:00.485Z,24.73
2022-10-25T01:04:30.887Z,19.60
2022-10-25T01:06:59.455Z,30.48
2022-10-25T01:09:30.135Z,30.65
2022-10-25T01:11:57.535Z,29.45
2022-10-25T01:14:26.833Z,18.30
2022-10-25T01:17:11.534Z,30.33
2022-10-25T01:20:25.894Z,25.05
2022-10-25T01:23:10.334Z,22.60
2022-10-25T01:25:58.761Z,27.40
2022-10-25T01:28:35.352Z,23.55
2022-10-25T01:31:34.384Z,31.25
2022-10-25T01:34:11.288Z,23.50
2022-10-25T01:36:56.694Z,24.38
2022-10-25T01:39:40.596Z,27.30
2022-10-25T01:42:16.627Z,22.13
2022-10-25T01:45:15.463Z,23.00
2022-10-25T01:47:53.148Z,25.17
2022-10-25T01:50:31.048Z,20.40
2022-10-25T01:52:58.556Z,18.65
2022-10-25T01:55:34.889Z,16.17
2022-10-25T01:58:11.546Z,22.83
2022-10-25T02:00:59.070Z,18.45
2022-10-25T02:03:54.344Z,22.08
2022-10-25T02:06:34.498Z,20.38
2022-10-25T02:09:34.879Z,19.50
2022-10-25T02:12:07.238Z,27.55
2022-10-25T02:14:38.537Z,25.83
2022-10-25T02:17:17.647Z,18.88
2022-10-25T02:19:50.163Z,25.45
2022-10-25T02:22:21.032Z,19.85
2022-10-25T02:24:50.194Z,23.42
2022-10-25T02:27:20.361Z,22.98
2022-10-25T02:29:48.290Z,22.95
2022-10-25T02:32:15.984Z,21.52
2022-10-25T02:34:47.039Z,24.75
2022-10-25T02:37:14.623Z,22.85
2022-10-25T02:39:42.746Z,27.05
2022-10-25T02:42:10.259Z,29.50
2022-10-25T02:44:37.667Z,25.00
2022-10-25T02:47:05.121Z,33.07
2022-10-25T02:49:32.618Z,30.30
2022-10-25T02:52:00.140Z,27.23
2022-10-25T02:54:27.594Z,26.02
2022-10-25T02:56:55.063Z,29.98
2022-10-25T02:59:22.574Z,21.23
2022-10-25T03:01:50.080Z,23.70
2022-10-25T03:04:18.271Z,30.90
2022-10-25T03:09:12.962Z,26.67
2022-10-25T03:11:40.410Z,32.40
2022-10-25T03:14:07.913Z,26.10
2022-10-25T03:16:35.410Z,28.73
2022-10-25T03:19:03.072Z,26.20
2022-10-25T03:21:30.546Z,38.50
2022-10-25T03:23:57.959Z,37.05
2022-10-25T03:26:25.395Z,32.85
2022-10-25T03:28:52.854Z,35.00
2022-10-25T03:31:23.006Z,22.50
2022-10-25T03:33:51.167Z,18.55
2022-10-25T03:36:18.608Z,27.52
2022-10-25T03:38:46.039Z,32.60
2022-10-25T03:41:13.594Z,32.20
2022-10-25T03:43:40.986Z,23.17
2022-10-25T03:46:08.799Z,22.27
2022-10-25T03:48:36.315Z,30.25
2022-10-25T03:51:03.760Z,25.77
2022-10-25T03:53:31.388Z,23.85
2022-10-25T03:55:58.959Z,25.75
2022-10-25T03:58:26.390Z,31.27
2022-10-25T04:00:53.923Z,25.35
2022-10-25T04:03:21.416Z,26.88
2022-10-25T04:05:48.879Z,31.25
2022-10-25T04:08:16.282Z,32.30
2022-10-25T04:10:44.058Z,24.17
2022-10-25T04:13:11.467Z,28.65
2022-10-25T04:15:38.892Z,31.02
2022-10-25T04:18:06.348Z,28.50
2022-10-25T04:20:34.014Z,30.60
2022-10-25T04:23:01.391Z,29.95
2022-10-25T04:25:29.027Z,23.10
2022-10-25T04:27:58.771Z,26.48
2022-10-25T04:30:26.430Z,30.70
2022-10-25T04:32:53.836Z,29.67
2022-10-25T04:35:21.324Z,36.05
2022-10-25T04:37:49.358Z,33.67
2022-10-25T04:40:19.011Z,39.72
2022-10-25T04:42:48.791Z,34.58
2022-10-25T04:45:16.411Z,42.17
2022-10-25T04:47:43.818Z,38.60
2022-10-25T04:50:11.252Z,28.63
2022-10-25T04:52:38.625Z,34.47
2022-10-25T04:55:06.219Z,32.60
2022-10-25T04:57:33.734Z,27.52
2022-10-25T05:00:01.204Z,39.08
2022-10-25T05:02:28.971Z,33.28
2022-10-25T05:04:56.527Z,40.45
2022-10-25T05:07:23.956Z,37.00
2022-10-25T05:09:51.433Z,31.75
2022-10-25T05:12:18.841Z,28.52
2022-10-25T05:14:46.315Z,28.40
2022-10-25T05:17:13.710Z,24.70
2022-10-25T05:19:41.063Z,32.28
2022-10-25T05:22:08.900Z,29.38
2022-10-25T05:24:36.307Z,31.25
2022-10-25T05:27:04.794Z,37.15
2022-10-25T05:29:32.240Z,34.70
2022-10-25T05:31:59.931Z,32.90
2022-10-25T05:34:27.534Z,34.35
2022-10-25T05:36:55.226Z,25.40
2022-10-25T05:39:22.643Z,33.35
2022-10-25T05:41:50.247Z,37.08
2022-10-25T05:44:17.924Z,35.42
2022-10-25T05:46:45.650Z,26.75
2022-10-25T05:49:13.062Z,27.98
2022-10-25T05:51:40.495Z,31.00
2022-10-25T05:54:11.438Z,33.63
2022-10-25T05:56:39.800Z,26.38
2022-10-25T05:59:09.915Z,29.20
2022-10-25T06:01:39.387Z,34.67
2022-10-25T06:04:07.568Z,31.80
2022-10-25T06:06:36.182Z,34.97
2022-10-25T06:09:04.102Z,33.95
2022-10-25T06:11:31.860Z,28.88
2022-10-25T06:13:59.672Z,24.73
2022-10-25T06:16:27.392Z,28.63
2022-10-25T06:18:54.903Z,25.92
2022-10-25T06:21:30.194Z,34.10
2022-10-25T06:23:59.703Z,35.05
2022-10-25T06:26:30.118Z,26.17
2022-10-25T06:29:00.005Z,34.40
2022-10-25T06:31:28.467Z,40.53
2022-10-25T06:33:56.095Z,24.38
2022-10-25T06:36:24.949Z,29.60
2022-10-25T06:38:52.466Z,35.17
2022-10-25T06:41:20.894Z,38.15
2022-10-25T06:43:49.624Z,34.90
2022-10-25T06:46:24.475Z,32.33
2022-10-25T06:48:53.699Z,35.72
2022-10-25T06:51:22.081Z,28.45
2022-10-25T06:54:01.297Z,33.85
2022-10-25T06:56:29.344Z,33.80
2022-10-25T06:58:56.919Z,33.53
2022-10-25T07:01:25.848Z,40.95
2022-10-25T07:03:54.903Z,38.67
2022-10-25T07:06:28.211Z,25.02
2022-10-25T07:08:58.754Z,30.73
2022-10-25T07:11:27.907Z,31.58
2022-10-25T07:13:58.408Z,33.20
2022-10-25T07:16:26.919Z,39.50
2022-10-25T07:19:02.219Z,32.10
2022-10-25T07:21:31.300Z,32.22
2022-10-25T07:23:58.732Z,34.92
2022-10-25T07:26:32.585Z,29.88
2022-10-25T07:29:01.850Z,40.08
2022-10-25T07:31:35.420Z,33.88
2022-10-25T07:34:04.605Z,23.90
2022-10-25T07:36:32.044Z,34.55
2022-10-25T07:38:59.704Z,32.08
2022-10-25T07:41:27.295Z,39.40
2022-10-25T07:43:55.472Z,25.23
2022-10-25T07:46:23.846Z,28.38
2022-10-25T07:48:52.613Z,23.38
2022-10-25T07:51:20.419Z,26.40
2022-10-25T07:53:48.238Z,36.17
2022-10-25T07:56:22.307Z,23.77
2022-10-25T07:58:52.566Z,28.67
2022-10-25T08:01:22.701Z,17.00
2022-10-25T08:03:52.380Z,20.05
2022-10-25T08:06:22.036Z,21.10
2022-10-25T08:08:49.888Z,20.25
2022-10-25T08:11:17.657Z,16.88
2022-10-25T08:13:48.714Z,19.05
2022-10-25T08:16:16.335Z,25.23
2022-10-25T08:18:44.171Z,21.13
2022-10-25T08:21:11.603Z,24.23
2022-10-25T08:23:39.370Z,27.70
2022-10-25T08:26:07.075Z,26.80
2022-10-25T08:28:34.656Z,20.52
2022-10-25T08:31:04.192Z,23.15
2022-10-25T08:33:33.360Z,21.67
2022-10-25T08:36:02.050Z,21.67
2022-10-25T08:38:29.881Z,34.40
2022-10-25T08:41:10.198Z,24.33
2022-10-25T08:44:04.168Z,32.00
2022-10-25T08:46:43.727Z,27.83
2022-10-25T08:49:26.650Z,33.63
2022-10-25T08:51:56.462Z,28.25
2022-10-25T08:54:28.554Z,24.80
2022-10-25T08:57:23.599Z,28.25
2022-10-25T09:00:10.519Z,26.10
2022-10-25T09:02:51.551Z,28.67
2022-10-25T09:05:48.560Z,24.40
2022-10-25T09:08:28.196Z,30.83
2022-10-25T09:11:14.185Z,21.88
2022-10-25T09:14:03.694Z,21.95
2022-10-25T09:16:37.054Z,34.45
2022-10-25T09:19:15.915Z,26.13
2022-10-25T09:22:02.276Z,26.70
2022-10-25T09:24:43.901Z,20.38
2022-10-25T09:27:19.865Z,34.38
2022-10-25T09:30:05.013Z,29.13
2022-10-25T09:32:49.130Z,24.42
2022-10-25T09:35:51.560Z,27.75
2022-10-25T09:38:43.947Z,23.35
2022-10-25T09:41:26.123Z,31.77
2022-10-25T09:44:13.919Z,20.90
2022-10-25T09:46:58.022Z,26.90
2022-10-25T09:49:48.917Z,25.02
2022-10-25T09:52:33.368Z,28.05
2022-10-25T09:55:26.643Z,24.38
2022-10-25T09:57:54.787Z,22.77
2022-10-25T10:00:22.272Z,23.80
2022-10-25T10:02:49.858Z,24.17
2022-10-25T10:05:20.278Z,26.50
2022-10-25T10:07:49.835Z,25.55
2022-10-25T10:10:24.882Z,22.88
2022-10-25T10:13:01.543Z,18.08
2022-10-25T10:15:35.029Z,22.73
2022-10-25T10:18:22.600Z,19.45
2022-10-25T10:21:10.069Z,19.33
2022-10-25T10:23:43.870Z,19.67
2022-10-25T10:26:24.474Z,19.80
2022-10-25T10:29:17.832Z,16.48
2022-10-25T10:31:49.478Z,18.75
2022-10-25T10:34:24.979Z,20.05
2022-10-25T10:37:12.662Z,26.02
2022-10-25T10:39:51.770Z,20.25
2022-10-25T10:42:29.448Z,16.20
2022-10-25T10:45:03.391Z,20.70
2022-10-25T10:47:35.979Z,12.63
2022-10-25T10:50:20.329Z,13.82
2022-10-25T10:53:06.276Z,12.50
2022-10-25T10:55:37.331Z,11.90
2022-10-25T10:58:18.670Z,11.43
2022-10-25T11:01:13.668Z,13.75
2022-10-25T11:03:48.897Z,13.93
2022-10-25T11:06:30.118Z,14.00
2022-10-25T11:09:24.918Z,7.50
2022-10-25T11:12:14.805Z,10.57
2022-10-25T11:14:42.898Z,9.32
2022-10-25T11:17:46.594Z,12.25
2022-10-25T11:20:33.202Z,9.93
2022-10-25T11:23:16.671Z,10.48
2022-10-25T11:26:01.692Z,10.73
2022-10-25T11:28:37.599Z,9.23
2022-10-25T11:31:34.794Z,9.88
2022-10-25T11:34:32.844Z,8.77
2022-10-25T11:37:07.249Z,6.88
2022-10-25T11:39:58.831Z,10.10
2022-10-25T11:42:35.269Z,6.00
2022-10-25T11:45:21.401Z,6.80
2022-10-25T11:47:55.647Z,8.00
2022-10-25T11:50:40.989Z,10.52
2022-10-25T11:53:33.364Z,7.65
2022-10-25T11:56:14.699Z,8.07
2022-10-25T11:58:45.269Z,13.27
2022-10-25T12:01:38.255Z,8.10
2022-10-25T12:04:31.240Z,7.90
2022-10-25T12:07:25.050Z,12.45
2022-10-25T12:10:32.790Z,9.20
2022-10-25T12:13:11.048Z,10.93
2022-10-25T12:15:46.140Z,9.38
2022-10-25T12:18:35.414Z,7.95
2022-10-25T12:21:03.995Z,12.88
2022-10-25T12:23:40.711Z,10.20
2022-10-25T12:26:15.354Z,5.68
2022-10-25T12:28:45.520Z,6.75
2022-10-25T12:31:12.847Z,7.68
2022-10-25T12:33:46.333Z,8.13
2022-10-25T12:36:44.094Z,4.50
2022-10-25T12:41:50.838Z,7.53
2022-10-25T12:44:45.887Z,7.75
2022-10-25T12:47:44.284Z,7.85
2022-10-25T12:50:32.879Z,5.45
2022-10-25T12:53:31.393Z,5.53
2022-10-25T12:56:18.430Z,5.18
2022-10-25T12:59:07.044Z,7.13
2022-10-25T13:02:03.822Z,9.82
2022-10-25T13:04:38.756Z,7.78
2022-10-25T13:07:08.243Z,8.18
2022-10-25T13:09:37.827Z,9.48
2022-10-25T13:12:15.387Z,7.28
2022-10-25T13:14:50.666Z,10.07
2022-10-25T13:17:18.105Z,10.05
2022-10-25T13:19:54.445Z,13.13
2022-10-25T13:22:37.343Z,9.48
2022-10-25T13:25:14.365Z,13.82
2022-10-25T13:28:12.409Z,12.10
2022-10-25T13:30:43.391Z,13.43
2022-10-25T13:33:33.198Z,15.45
2022-10-25T13:36:03.339Z,8.25
2022-10-25T13:38:39.624Z,11.35
2022-10-25T13:41:10.124Z,12.52
2022-10-25T13:43:58.833Z,8.60
2022-10-25T13:46:31.592Z,12.10
2022-10-25T13:49:01.143Z,13.15
2022-10-25T13:51:31.848Z,12.32
2022-10-25T13:54:06.096Z,14.68
2022-10-25T13:56:47.595Z,12.27
2022-10-25T13:59:37.453Z,17.52
2022-10-25T14:02:19.220Z,10.80
2022-10-25T14:04:46.893Z,12.88
2022-10-25T14:07:46.302Z,31.40
2022-10-25T14:10:25.671Z,7.97
2022-10-25T14:13:00.058Z,14.05
2022-10-25T14:15:47.035Z,13.60
2022-10-25T14:18:21.875Z,10.53
2022-10-25T14:20:56.489Z,16.98
2022-10-25T14:23:30.207Z,14.10
2022-10-25T14:25:59.799Z,14.27
2022-10-25T14:28:29.405Z,10.13
2022-10-25T14:30:59.297Z,12.55
2022-10-25T14:33:40.889Z,13.45
2022-10-25T14:36:28.649Z,12.43
2022-10-25T14:39:17.634Z,15.60
2022-10-25T14:42:02.334Z,10.35
2022-10-25T14:44:45.721Z,10.35
2022-10-25T14:47:33.378Z,17.00
2022-10-25T14:50:02.195Z,13.90
2022-10-25T14:52:31.492Z,12.00
2022-10-25T14:55:02.853Z,10.82
2022-10-25T14:57:33.299Z,16.83
2022-10-25T15:00:03.395Z,11.82
2022-10-25T15:02:35.012Z,13.27
2022-10-25T15:05:04.585Z,16.35
2022-10-25T15:07:36.028Z,14.05
2022-10-25T15:12:34.500Z,14.80
2022-10-25T15:15:45.075Z,11.88
2022-10-25T15:18:36.002Z,8.43
2022-10-25T15:21:04.631Z,15.68
2022-10-25T15:23:32.927Z,10.70
2022-10-25T15:28:47.815Z,11.10
2022-10-25T15:31:21.290Z,12.40
2022-10-25T15:33:57.163Z,15.88
2022-10-25T15:36:27.706Z,9.13
2022-10-25T15:39:17.028Z,12.90
2022-10-25T15:41:44.692Z,17.42
2022-10-25T15:44:12.073Z,11.03
2022-10-25T15:46:40.294Z,12.63
2022-10-25T15:51:41.064Z,12.98
2022-10-25T15:54:17.702Z,14.90
2022-10-25T15:56:45.572Z,14.40
2022-10-25T15:59:13.976Z,9.38
2022-10-25T16:01:44.265Z,12.27
2022-10-25T16:04:17.000Z,11.55
2022-10-25T16:06:45.862Z,12.70
2022-10-25T16:09:13.292Z,13.68
2022-10-25T16:11:46.981Z,12.35
2022-10-25T16:14:25.280Z,14.38
2022-10-25T16:16:53.014Z,19.98
2022-10-25T16:19:21.891Z,16.98
2022-10-25T16:21:49.391Z,14.90
2022-10-25T16:24:16.858Z,10.98
2022-10-25T16:26:47.495Z,17.08
2022-10-25T16:29:24.164Z,12.35
2022-10-25T16:31:52.770Z,16.20
2022-10-25T16:34:20.757Z,11.15
2022-10-25T16:36:50.244Z,20.77
2022-10-25T16:39:17.964Z,18.15
2022-10-25T16:41:46.673Z,14.07
2022-10-25T16:44:17.438Z,17.80
2022-10-25T16:46:45.539Z,17.63
2022-10-25T16:49:12.919Z,20.58
2022-10-25T16:51:40.470Z,17.57
2022-10-25T16:54:09.830Z,13.65
2022-10-25T16:56:37.311Z,21.98
2022-10-25T16:59:04.739Z,19.58
2022-10-25T17:01:34.966Z,16.02
2022-10-25T17:04:04.608Z,14.32
2022-10-25T17:06:47.483Z,20.02
2022-10-25T17:09:15.018Z,19.85
2022-10-25T17:11:42.918Z,17.27
2022-10-25T17:16:47.723Z,22.48
2022-10-25T17:19:15.121Z,18.35
2022-10-25T17:21:42.678Z,19.23
2022-10-25T17:24:10.498Z,21.02
2022-10-25T17:26:38.171Z,15.30
2022-10-25T17:29:05.695Z,19.48
2022-10-25T17:31:36.059Z,20.40
2022-10-25T17:34:04.447Z,19.10
2022-10-25T17:36:32.414Z,22.42
2022-10-25T17:39:00.573Z,24.65
2022-10-25T17:41:28.056Z,21.42
2022-10-25T17:43:56.855Z,20.20
2022-10-25T17:46:28.987Z,21.73
2022-10-25T17:49:03.790Z,18.15
2022-10-25T17:51:32.960Z,18.27
2022-10-25T17:54:00.560Z,27.52
2022-10-25T17:56:28.925Z,21.42
2022-10-25T17:58:58.016Z,19.77
2022-10-25T18:01:27.636Z,24.50
2022-10-25T18:03:55.644Z,26.35
2022-10-25T18:06:25.190Z,19.45
2022-10-25T18:08:54.125Z,18.50
2022-10-25T18:11:23.562Z,24.20
2022-10-25T18:13:53.821Z,23.88
2022-10-25T18:16:26.743Z,19.25
2022-10-25T18:18:56.876Z,20.00
2022-10-25T18:21:25.100Z,26.00
2022-10-25T18:26:25.081Z,21.08
2022-10-25T18:28:53.132Z,19.20
2022-10-25T18:31:21.113Z,19.38
2022-10-25T18:33:48.692Z,20.23
2022-10-25T18:36:19.382Z,17.15
2022-10-25T18:38:48.335Z,21.92
2022-10-25T18:41:22.496Z,17.25
2022-10-25T18:43:50.733Z,21.90
2022-10-25T18:48:52.787Z,20.63
2022-10-25T18:51:22.067Z,21.30
2022-10-25T18:54:00.666Z,16.65
2022-10-25T18:56:29.290Z,19.23
2022-10-25T18:58:58.084Z,27.52
2022-10-25T19:01:31.995Z,21.58
2022-10-25T19:04:01.536Z,18.05
2022-10-25T19:06:29.579Z,22.15
2022-10-25T19:08:56.978Z,20.60
2022-10-25T19:11:24.467Z,16.23
2022-10-25T19:13:56.483Z,21.13
2022-10-25T19:16:24.258Z,17.50
2022-10-25T19:18:52.112Z,32.78
2022-10-25T19:21:22.112Z,13.60
2022-10-25T19:23:49.861Z,16.17
2022-10-25T19:28:46.615Z,22.02
2022-10-25T19:31:16.202Z,10.95
2022-10-25T19:33:48.187Z,18.45
2022-10-25T19:36:17.228Z,21.17
2022-10-25T19:38:45.365Z,13.35
2022-10-25T19:41:22.932Z,16.95
2022-10-25T19:43:51.152Z,17.27
2022-10-25T19:48:46.489Z,11.43
2022-10-25T19:51:19.671Z,12.45
2022-10-25T19:53:47.602Z,17.98
2022-10-25T19:56:21.272Z,13.55
2022-10-25T19:58:49.832Z,17.05
2022-10-25T20:01:27.160Z,13.73
2022-10-25T20:03:57.357Z,15.57
2022-10-25T20:06:35.599Z,15.85
2022-10-25T20:09:03.135Z,19.65
2022-10-25T20:11:31.450Z,17.75
2022-10-25T20:14:00.847Z,18.42
2022-10-25T20:16:29.705Z,14.15
2022-10-25T20:18:59.619Z,23.35
2022-10-25T20:21:31.344Z,12.50
2022-10-25T20:24:06.289Z,17.73
2022-10-25T20:26:36.330Z,19.60
2022-10-25T20:29:18.462Z,16.50
2022-10-25T20:31:49.770Z,13.50
2022-10-25T20:34:18.736Z,15.25
2022-10-25T20:36:47.486Z,19.70
2022-10-25T20:39:15.266Z,17.52
2022-10-25T20:41:42.792Z,14.52
2022-10-25T20:44:10.960Z,15.27
2022-10-25T20:46:38.412Z,17.52
2022-10-25T20:49:07.469Z,16.00
2022-10-25T20:51:35.218Z,15.18
2022-10-25T20:54:09.246Z,18.05
2022-10-25T20:56:37.303Z,12.70
2022-10-25T20:59:04.841Z,18.63
2022-10-25T21:01:32.666Z,18.00
2022-10-25T21:04:00.169Z,13.90
2022-10-25T21:06:27.574Z,17.35
2022-10-25T21:08:55.149Z,15.07
2022-10-25T21:11:22.612Z,16.20
2022-10-25T21:13:50.108Z,22.53
2022-10-25T21:16:17.523Z,15.38
2022-10-25T21:18:45.144Z,17.27
2022-10-25T21:21:19.991Z,17.80
2022-10-25T21:23:48.079Z,13.82
2022-10-25T21:26:16.167Z,15.50
2022-10-25T21:28:43.586Z,13.82
2022-10-25T21:31:15.672Z,16.77
2022-10-25T21:33:49.874Z,18.55
2022-10-25T21:36:19.835Z,18.73
2022-10-25T21:38:47.774Z,22.75
2022-10-25T21:41:20.450Z,22.50
2022-10-25T21:43:49.819Z,17.08
2022-10-25T21:46:19.115Z,19.27
2022-10-25T21:48:47.928Z,15.73
2022-10-25T21:51:15.623Z,13.57
2022-10-25T21:53:43.659Z,13.82
2022-10-25T21:56:13.963Z,17.48
2022-10-25T21:58:44.534Z,13.48
2022-10-25T22:01:16.945Z,19.15
2022-10-25T22:03:44.623Z,16.90
2022-10-25T22:06:14.111Z,16.63
2022-10-25T22:08:41.823Z,16.23
2022-10-25T22:11:18.112Z,21.52
2022-10-25T22:13:46.160Z,19.30
2022-10-25T22:16:18.535Z,20.40
2022-10-25T22:19:07.857Z,20.20
2022-10-25T22:21:37.429Z,22.80
2022-10-25T22:24:08.316Z,22.58
2022-10-25T22:26:37.171Z,26.05
2022-10-25T22:29:05.514Z,22.50
2022-10-25T22:31:33.411Z,27.50
2022-10-25T22:34:03.293Z,20.60
2022-10-25T22:36:32.738Z,22.05
2022-10-25T22:39:00.334Z,21.42
2022-10-25T22:41:29.460Z,22.95
2022-10-25T22:43:57.863Z,17.25
2022-10-25T22:46:35.515Z,18.70
2022-10-25T22:49:08.384Z,23.83
2022-10-25T22:51:37.497Z,18.98
2022-10-25T22:54:05.178Z,23.98
2022-10-25T22:56:33.083Z,19.75
2022-10-25T22:59:03.472Z,23.38
2022-10-25T23:01:36.233Z,20.30
2022-10-25T23:04:06.812Z,15.98
2022-10-25T23:06:37.540Z,18.33
2022-10-25T23:09:08.911Z,13.13
2022-10-25T23:11:38.462Z,25.45
2022-10-25T23:14:07.354Z,17.52
2022-10-25T23:16:35.046Z,15.10
2022-10-25T23:19:02.787Z,27.55
2022-10-25T23:21:30.942Z,19.02
2022-10-25T23:23:59.827Z,24.00
2022-10-25T23:26:31.057Z,18.35
2022-10-25T23:28:59.535Z,23.42
2022-10-25T23:31:27.352Z,23.55
2022-10-25T23:33:57.216Z,19.95
2022-10-25T23:36:27.339Z,17.77
2022-10-25T23:38:56.046Z,19.50
2022-10-25T23:41:23.512Z,24.10
2022-10-25T23:43:51.209Z,19.02
2022-10-25T23:46:19.066Z,17.90
2022-10-25T23:48:46.618Z,25.70
2022-10-25T23:51:16.314Z,20.83
2022-10-25T23:53:44.110Z,23.98
2022-10-25T23:56:13.375Z,18.38
2022-10-25T23:58:41.208Z,19.45
